Madison, West Virginia
Current Conditions -  °F | °C
As of 12:54 PM on Wednesday 28 Jan 2015 (Local Time) from KCRW Reporting Station
Scattered Clouds Scattered Clouds  
Wind Chill: 28°   Ceiling: Unl
Heat Index: 28°   Visibility: 10mi
Dew Point: 16°   Wind: 0mph
Humidity: 61%   Direction: NA
Pressure: 30.35"   Gusts: NA
Location:  38.07°N, 81.82°W
Report Text: KCRW 281754Z 00000KT 10SM SCT023 M02/M09 A3035 RMK AO2 SLP288 T10221089 11022 21089 58010
Loading
Personal Weather Stations






























Interactive Weather Map New forecast layout! Learn more

10-Day Weather Forecast

Advertisements
Track Severe Weather on mobile